1888 Cyclonic Storm NOT_NAMED (1888234N21089)


IBTrACS version v04r00. Visit IBTrACS website for data access.
Please direct all questions to the IBTrACS Q and A forum

Storm track - Intensity - Wind Radii - Intensity Data - Source Data - All data

Summary Information

Storm ID 1888234N21089
Start Aug 21 00Z
Landfall Aug 22 09Z
Max Intensity 45 kt (Aug 21 12Z)
End Aug 29 03Z
ATCF IDs
Track status Best track data.

Storm track plot

Map of storm track

Intensity plots

Map of storm track

Radial wind information

No radial wind information for this storm


Position and Intensity Table

BASIN ISO_TIME_________ NATURE LAT LON DS824 WIND
degrees north degrees east kts
NI 1888-08-21 00:00:00 TS 21.40 88.50 34
NI 03:00:00 TS 21.40 88.50 36
NI 06:00:00 TS 21.40 88.50 39
NI 09:00:00 TS 21.41 88.50 42
NI 12:00:00 TS 21.41 88.50 45
NI 15:00:00 TS 21.40 88.50 45
NI 18:00:00 TS 21.39 88.50 45
NI 21:00:00 TS 21.37 88.49 45
NI 1888-08-22 00:00:00 TS 21.38 88.50 45
NI 03:00:00 TS 21.46 88.52 45
NI 06:00:00 TS 21.61 88.56 45
NI 09:00:00 TS 21.76 88.58 45
NI 12:00:00 TS 21.92 88.59 45
NI 15:00:00 TS 22.08 88.60 45
NI 18:00:00 TS 22.23 88.60 45
NI 21:00:00 TS 22.36 88.60 45
NI 1888-08-23 00:00:00 TS 22.46 88.60 45
NI 03:00:00 TS 22.51 88.60 45
NI 06:00:00 TS 22.52 88.60 45
NI 09:00:00 TS 22.52 88.60 45
NI 12:00:00 TS 22.51 88.60 45
NI 15:00:00 TS 22.50 88.60 45
NI 18:00:00 TS 22.48 88.61 45
NI 21:00:00 TS 22.45 88.62 45
NI 1888-08-24 00:00:00 TS 22.47 88.61 45
NI 03:00:00 TS 22.55 88.56 41
NI 06:00:00 TS 22.73 88.47 37
NI 09:00:00 TS 22.98 88.37 33
NI 12:00:00 TS 23.27 88.26 30
NI 15:00:00 TS 23.53 88.15 30
NI 18:00:00 TS 23.77 88.04 30
NI 21:00:00 TS 24.01 87.90 30
NI 1888-08-25 00:00:00 TS 24.21 87.76 30
NI 03:00:00 TS 24.36 87.65 30
NI 06:00:00 TS 24.47 87.54 30
NI 09:00:00 TS 24.57 87.40 30
NI 12:00:00 TS 24.66 87.26 30
NI 15:00:00 TS 24.75 87.15 30
NI 18:00:00 TS 24.84 87.05 30
NI 21:00:00 TS 24.90 86.96 30
NI 1888-08-26 00:00:00 TS 24.96 86.86 30
NI 03:00:00 TS 25.05 86.73 30
NI 06:00:00 TS 25.14 86.59 30
NI 09:00:00 TS 25.21 86.45 30
NI 12:00:00 TS 25.27 86.29 30
NI 15:00:00 TS 25.32 86.11 30
NI 18:00:00 TS 25.38 85.89 30
NI 21:00:00 TS 25.43 85.65 30
NI 1888-08-27 00:00:00 TS 25.48 85.41 30
NI 03:00:00 TS 25.52 85.22 30
NI 06:00:00 TS 25.57 85.06 30
NI 09:00:00 TS 25.62 84.91 30
NI 12:00:00 TS 25.67 84.77 30
NI 15:00:00 TS 25.72 84.62 30
NI 18:00:00 TS 25.77 84.48 30
NI 21:00:00 TS 25.81 84.34 30
NI 1888-08-28 00:00:00 TS 25.87 84.19 30
NI 03:00:00 TS 25.95 83.98 30
NI 06:00:00 TS 26.04 83.75 30
NI 09:00:00 TS 26.14 83.54 30
NI 12:00:00 TS 26.25 83.32 30
NI 15:00:00 TS 26.35 83.08 30
NI 18:00:00 TS 26.45 82.84 30
NI 21:00:00 TS 26.54 82.60 30
NI 1888-08-29 00:00:00 TS 26.64 82.37 30
NI 03:00:00 NR 26.70 82.20

Source Information

Agency Information
USA
TOKYO
CMA
HKO
NEWDELHI
REUNION
BOM
NADI
WELLINGTON
DS824 n_ind.dat:127:NOT NAMED
TD9636 cons_worldwide_trop_cyclone_18710101-19891231-004:Line=1275
TD9635
NEUMANN
MLC

All available IBTrACS Data

SEASON BASIN SUBBASIN ISO_TIME_________ NATURE LAT LON DIST2LAND LANDFALL IFLAG USA SSHS DS824 LAT DS824 LON DS824 STAGE DS824 WIND TD9636 LAT TD9636 LON TD9636 STAGE STORM SPEED STORM DIR
Year degrees north degrees east km km 1 degrees north degrees east kts degrees north degrees east kts degrees
1888 NI BB 1888-08-21 00:00:00 TS 21.40 88.50 22 22 _________O____ -1 21.40 88.50 TC 34 0 0
1888 NI BB 03:00:00 TS 21.40 88.50 22 22 _________PO___ -1 21.40 88.50 TC 36 21.40 88.50 2 0 0
1888 NI BB 06:00:00 TS 21.40 88.50 22 22 _________OP___ -1 21.40 88.50 TC 39 21.41 88.50 2 0 0
1888 NI BB 09:00:00 TS 21.41 88.50 22 22 _________PP___ -1 21.40 88.50 TC 42 21.42 88.50 2 0 0
1888 NI BB 12:00:00 TS 21.41 88.50 22 22 _________OP___ -1 21.40 88.50 TC 45 21.41 88.50 2 0 0
1888 NI BB 15:00:00 TS 21.40 88.50 22 22 _________PO___ -1 21.40 88.50 TC 45 21.40 88.50 3 0 0
1888 NI BB 18:00:00 TS 21.39 88.50 22 22 _________OP___ -1 21.40 88.50 TC 45 21.38 88.50 3 0 211
1888 NI BB 21:00:00 TS 21.37 88.49 22 22 _________PP___ -1 21.38 88.49 TC 45 21.35 88.49 3 0 0
1888 NI BB 1888-08-22 00:00:00 TS 21.38 88.50 22 11 _________OP___ -1 21.40 88.50 TC 45 21.36 88.49 3 1 21
1888 NI BB 03:00:00 TS 21.46 88.52 11 0 _________PO___ -1 21.53 88.55 TC 45 21.40 88.50 3 2 14
1888 NI BB 06:00:00 TS 21.61 88.56 10 10 _________OP___ -1 21.70 88.60 TC 45 21.51 88.52 3 3 12
1888 NI BB 09:00:00 TS 21.76 88.58 0 0 _________PP___ -1 21.85 88.61 TC 45 21.66 88.55 3 3 4
1888 NI BB 12:00:00 TS 21.92 88.59 0 0 _________OP___ -1 22.00 88.60 TC 45 21.83 88.58 3 3 0
1888 NI BB 15:00:00 TS 22.08 88.60 0 0 _________PO___ -1 22.16 88.60 TC 45 22.00 88.60 3 3 0
1888 NI BB 18:00:00 TS 22.23 88.60 0 0 _________OP___ -1 22.30 88.60 TC 45 22.15 88.61 3 3 0
1888 NI BB 21:00:00 TS 22.36 88.60 0 0 _________PP___ -1 22.42 88.60 TC 45 22.29 88.61 3 2 0
1888 NI BB 1888-08-23 00:00:00 TS 22.46 88.60 0 0 _________OP___ -1 22.50 88.60 TC 45 22.41 88.60 3 1 0
1888 NI BB 03:00:00 TS 22.51 88.60 0 0 _________PO___ -1 22.52 88.60 TC 45 22.50 88.60 3 1 0
1888 NI BB 06:00:00 TS 22.52 88.60 0 0 _________OP___ -1 22.50 88.60 TC 45 22.54 88.60 3 0 0
1888 NI BB 09:00:00 TS 22.52 88.60 0 0 _________PP___ -1 22.50 88.60 TC 45 22.54 88.60 3 0 0
1888 NI BB 12:00:00 TS 22.51 88.60 0 0 _________OP___ -1 22.50 88.60 TC 45 22.52 88.60 3 0 0
1888 NI BB 15:00:00 TS 22.50 88.60 0 0 _________PO___ -1 22.50 88.60 TC 45 22.50 88.60 3 0 136
1888 NI BB 18:00:00 TS 22.48 88.61 0 0 _________OP___ -1 22.50 88.60 TC 45 22.46 88.62 3 0 0
1888 NI BB 21:00:00 TS 22.45 88.62 0 0 _________PP___ -1 22.48 88.61 TC 45 22.43 88.63 3 0 0
1888 NI BB 1888-08-24 00:00:00 TS 22.47 88.61 0 0 _________OP___ -1 22.50 88.60 TC 45 22.44 88.63 3 1 331
1888 NI BB 03:00:00 TS 22.55 88.56 0 0 _________PO___ -1 22.61 88.51 TC 41 22.50 88.60 3 3 332
1888 NI BB 06:00:00 TS 22.73 88.47 0 0 _________OP___ -1 22.80 88.40 TC 37 22.66 88.53 3 5 338
1888 NI BB 09:00:00 TS 22.98 88.37 0 0 _________PP___ -1 23.08 88.30 TC 33 22.88 88.44 3 6 340
1888 NI BB 12:00:00 TS 23.27 88.26 0 0 _________OP___ -1 23.40 88.20 TC 30 23.14 88.32 3 6 340
1888 NI BB 15:00:00 TS 23.53 88.15 0 0 _________PO___ -1 23.66 88.11 TC 30 23.40 88.20 1 5 338
1888 NI BB 18:00:00 TS 23.77 88.04 0 0 _________OP___ -1 23.90 88.00 TC 30 23.65 88.08 1 5 334
1888 NI BB 21:00:00 TS 24.01 87.90 0 0 _________PP___ -1 24.12 87.85 TC 30 23.89 87.96 1 5 330
1888 NI BB 1888-08-25 00:00:00 TS 24.21 87.76 0 0 _________OP___ -1 24.30 87.70 TC 30 24.11 87.83 1 4 327
1888 NI BB 03:00:00 TS 24.36 87.65 0 0 _________PO___ -1 24.41 87.60 TC 30 24.30 87.70 1 3 321
1888 NI BB 06:00:00 TS 24.47 87.54 0 0 _________OP___ -1 24.50 87.50 TC 30 24.44 87.57 1 3 313
1888 NI BB 09:00:00 TS 24.57 87.40 0 0 _________PP___ -1 24.60 87.35 TC 30 24.54 87.44 1 3 308
1888 NI BB 12:00:00 TS 24.66 87.26 0 0 _________OP___ -1 24.70 87.20 TC 30 24.63 87.32 1 3 309
1888 NI BB 15:00:00 TS 24.75 87.15 0 0 _________PO___ -1 24.81 87.09 TC 30 24.70 87.20 1 3 313
1888 NI BB 18:00:00 TS 24.84 87.05 0 0 _________OP___ -1 24.90 87.00 TC 30 24.78 87.10 1 2 311
1888 NI BB 21:00:00 TS 24.90 86.96 0 0 _________PP___ -1 24.95 86.91 TC 30 24.86 87.01 1 2 305
1888 NI BB 1888-08-26 00:00:00 TS 24.96 86.86 0 0 _________OP___ -1 25.00 86.80 TC 30 24.93 86.91 1 3 305
1888 NI BB 03:00:00 TS 25.05 86.73 0 0 _________PO___ -1 25.10 86.66 TC 30 25.00 86.80 1 3 306
1888 NI BB 06:00:00 TS 25.14 86.59 0 0 _________OP___ -1 25.20 86.50 TC 30 25.08 86.68 1 3 302
1888 NI BB 09:00:00 TS 25.21 86.45 0 0 _________PP___ -1 25.26 86.36 TC 30 25.16 86.54 1 3 295
1888 NI BB 12:00:00 TS 25.27 86.29 0 0 _________OP___ -1 25.30 86.20 TC 30 25.23 86.38 1 3 291
1888 NI BB 15:00:00 TS 25.32 86.11 0 0 _________PO___ -1 25.35 86.01 TC 30 25.30 86.20 1 4 287
1888 NI BB 18:00:00 TS 25.38 85.89 0 0 _________OP___ -1 25.40 85.80 TC 30 25.36 85.98 1 4 284
1888 NI BB 21:00:00 TS 25.43 85.65 0 0 _________PP___ -1 25.45 85.54 TC 30 25.41 85.75 1 4 283
1888 NI BB 1888-08-27 00:00:00 TS 25.48 85.41 0 0 _________OP___ -1 25.50 85.30 TC 30 25.45 85.52 1 4 284
1888 NI BB 03:00:00 TS 25.52 85.22 0 0 _________PO___ -1 25.55 85.13 TC 30 25.50 85.30 1 3 288
1888 NI BB 06:00:00 TS 25.57 85.06 0 0 _________OP___ -1 25.60 85.00 TC 30 25.55 85.13 1 3 290
1888 NI BB 09:00:00 TS 25.62 84.91 0 0 _________PP___ -1 25.65 84.85 TC 30 25.60 84.98 1 3 291
1888 NI BB 12:00:00 TS 25.67 84.77 0 0 _________OP___ -1 25.70 84.70 TC 30 25.65 84.84 1 3 291
1888 NI BB 15:00:00 TS 25.72 84.62 0 0 _________PO___ -1 25.75 84.55 TC 30 25.70 84.70 1 3 290
1888 NI BB 18:00:00 TS 25.77 84.48 0 0 _________OP___ -1 25.80 84.40 TC 30 25.74 84.56 1 3 289
1888 NI BB 21:00:00 TS 25.81 84.34 0 0 _________PP___ -1 25.84 84.26 TC 30 25.78 84.42 1 3 290
1888 NI BB 1888-08-28 00:00:00 TS 25.87 84.19 0 0 _________OP___ -1 25.90 84.10 TC 30 25.84 84.27 1 4 292
1888 NI BB 03:00:00 TS 25.95 83.98 0 0 _________PO___ -1 25.99 83.86 TC 30 25.90 84.10 1 4 294
1888 NI BB 06:00:00 TS 26.04 83.75 0 0 _________OP___ -1 26.10 83.60 TC 30 25.99 83.90 1 4 296
1888 NI BB 09:00:00 TS 26.14 83.54 0 0 _________PP___ -1 26.20 83.40 TC 30 26.08 83.68 1 4 298
1888 NI BB 12:00:00 TS 26.25 83.32 0 0 _________OP___ -1 26.30 83.20 TC 30 26.19 83.44 1 5 297
1888 NI BB 15:00:00 TS 26.35 83.08 0 0 _________PO___ -1 26.40 82.96 TC 30 26.30 83.20 1 5 295
1888 NI BB 18:00:00 TS 26.45 82.84 0 0 _________OP___ -1 26.50 82.70 TC 30 26.40 82.95 1 5 294
1888 NI BB 21:00:00 TS 26.54 82.60 0 0 _________PP___ -1 26.60 82.45 TC 30 26.51 82.70 1 5 294
1888 NI BB 1888-08-29 00:00:00 TS 26.64 82.37 0 0 _________OP___ -1 26.70 82.20 TC 30 26.60 82.45 1 4 294
1888 NI BB 03:00:00 NR 26.70 82.20 0 __________O___ -1 TC 26.70 82.20 1 3 293